createdAt,value
2023-05-08T00:00:42.193Z,99937.03
2023-05-08T00:03:10.296Z,99937.03
2023-05-08T00:05:38.205Z,99937.16
2023-05-08T00:08:07.655Z,99931.91
2023-05-08T00:10:35.766Z,99905.88
2023-05-08T00:13:03.735Z,99934.84
2023-05-08T00:15:31.770Z,99938.00
2023-05-08T00:17:59.758Z,99933.59
2023-05-08T00:20:28.004Z,99933.53
2023-05-08T00:22:56.789Z,99936.06
2023-05-08T00:25:26.189Z,99934.13
2023-05-08T00:27:54.223Z,99925.63
2023-05-08T00:30:22.253Z,99933.59
2023-05-08T00:32:50.224Z,99920.47
2023-05-08T00:35:18.153Z,99924.28
2023-05-08T00:37:46.128Z,99912.94
2023-05-08T00:40:14.318Z,99910.97
2023-05-08T00:42:43.885Z,99932.88
2023-05-08T00:45:12.784Z,99924.72
2023-05-08T00:47:41.144Z,99932.91
2023-05-08T00:50:10.949Z,99934.22
2023-05-08T00:52:39.908Z,99937.75
2023-05-08T00:55:08.653Z,99940.97
2023-05-08T00:57:37.932Z,99942.63
2023-05-08T01:00:08.751Z,99944.09
2023-05-08T01:02:37.109Z,99953.25
2023-05-08T01:05:05.511Z,99947.22
2023-05-08T01:07:33.614Z,99928.34
2023-05-08T01:10:01.543Z,99948.25
2023-05-08T01:12:41.074Z,99947.22
2023-05-08T01:15:16.991Z,99955.69
2023-05-08T01:17:57.240Z,99961.53
2023-05-08T01:20:36.868Z,99960.75
2023-05-08T01:23:39.692Z,99962.66
2023-05-08T01:26:45.895Z,99961.13
2023-05-08T01:29:49.068Z,99963.06
2023-05-08T01:32:21.332Z,99963.56
2023-05-08T01:34:58.787Z,99960.63
2023-05-08T01:37:33.946Z,99949.25
2023-05-08T01:40:11.327Z,99952.44
2023-05-08T01:42:54.638Z,99957.25
2023-05-08T01:45:27.059Z,99949.66
2023-05-08T01:48:03.074Z,99960.66
2023-05-08T01:50:36.690Z,99948.16
2023-05-08T01:53:14.642Z,99953.03
2023-05-08T01:55:44.946Z,99948.75
2023-05-08T01:58:13.788Z,99959.19
2023-05-08T02:00:44.185Z,99955.28
2023-05-08T02:03:15.439Z,99965.22
2023-05-08T02:05:45.110Z,99945.09
2023-05-08T02:08:15.172Z,99962.00
2023-05-08T02:10:44.421Z,99933.38
2023-05-08T02:13:14.309Z,99957.44
2023-05-08T02:15:43.972Z,99917.47
2023-05-08T02:18:14.368Z,99950.16
2023-05-08T02:20:43.294Z,99949.00
2023-05-08T02:23:12.626Z,99957.09
2023-05-08T02:25:41.206Z,99959.00
2023-05-08T02:28:09.865Z,99950.06
2023-05-08T02:30:38.486Z,99951.38
2023-05-08T02:33:09.401Z,99957.81
2023-05-08T02:35:40.407Z,99956.78
2023-05-08T02:38:10.816Z,99956.31
2023-05-08T02:40:42.981Z,99963.47
2023-05-08T02:43:11.342Z,99957.59
2023-05-08T02:45:45.853Z,99969.63
2023-05-08T02:48:21.190Z,99966.84
2023-05-08T02:50:59.262Z,99961.34
2023-05-08T02:53:35.661Z,99961.00
2023-05-08T02:56:11.221Z,99960.16
2023-05-08T02:58:47.307Z,99961.50
2023-05-08T03:01:22.907Z,99959.03
2023-05-08T03:03:57.593Z,99962.03
2023-05-08T03:06:29.394Z,99956.72
2023-05-08T03:09:01.461Z,99963.38
2023-05-08T03:11:39.879Z,99962.34
2023-05-08T03:14:12.144Z,99937.38
2023-05-08T03:16:42.786Z,99970.47
2023-05-08T03:19:20.025Z,99964.50
2023-05-08T03:21:52.596Z,99963.88
2023-05-08T03:24:23.823Z,99976.13
2023-05-08T03:26:51.916Z,99974.06
2023-05-08T03:29:20.210Z,99987.53
2023-05-08T03:31:49.513Z,99990.16
2023-05-08T03:34:20.506Z,99989.22
2023-05-08T03:36:48.414Z,99982.94
2023-05-08T03:39:17.851Z,99972.31
2023-05-08T03:41:46.409Z,99985.78
2023-05-08T03:44:15.750Z,99987.53
2023-05-08T03:46:44.203Z,99988.41
2023-05-08T03:49:13.292Z,99994.44
2023-05-08T03:51:42.146Z,99990.16
2023-05-08T03:54:10.088Z,99993.13
2023-05-08T03:56:39.408Z,99991.47
2023-05-08T03:59:17.027Z,99994.81
2023-05-08T04:01:53.935Z,99997.88
2023-05-08T04:04:27.572Z,99989.09
2023-05-08T04:07:04.170Z,100005.59
2023-05-08T04:09:38.366Z,100008.31
2023-05-08T04:12:22.922Z,100017.53
2023-05-08T04:14:56.528Z,99961.53
2023-05-08T04:17:34.827Z,100009.59
2023-05-08T04:20:06.390Z,100005.44
2023-05-08T04:22:35.869Z,100015.53
2023-05-08T04:25:08.000Z,100016.25
2023-05-08T04:27:39.534Z,100010.28
2023-05-08T04:30:10.212Z,100007.25
2023-05-08T04:32:40.930Z,100010.66
2023-05-08T04:35:10.808Z,100008.47
2023-05-08T04:37:38.825Z,100002.75
2023-05-08T04:40:08.148Z,100004.34
2023-05-08T04:42:39.409Z,100008.19
2023-05-08T04:45:08.344Z,100008.72
2023-05-08T04:47:36.373Z,100011.69
2023-05-08T04:50:04.422Z,100008.09
2023-05-08T04:52:32.377Z,100011.00
2023-05-08T04:55:00.603Z,100013.50
2023-05-08T04:57:28.596Z,100011.81
2023-05-08T04:59:57.977Z,100008.31
2023-05-08T05:02:27.056Z,99989.72
2023-05-08T05:04:58.728Z,99997.25
2023-05-08T05:07:26.606Z,99999.28
2023-05-08T05:09:54.450Z,99999.59
2023-05-08T05:12:22.387Z,100002.75
2023-05-08T05:14:50.297Z,100007.72
2023-05-08T05:17:19.536Z,99998.97
2023-05-08T05:19:47.464Z,100004.44
2023-05-08T05:22:15.339Z,100004.66
2023-05-08T05:24:43.253Z,99997.47
2023-05-08T05:27:11.131Z,99998.84
2023-05-08T05:29:39.063Z,99999.56
2023-05-08T05:32:07.538Z,99997.31
2023-05-08T05:34:37.419Z,99964.44
2023-05-08T05:37:05.326Z,99988.81
2023-05-08T05:39:33.207Z,99982.72
2023-05-08T05:42:01.131Z,99980.41
2023-05-08T05:44:29.088Z,99980.91
2023-05-08T05:46:57.022Z,99977.50
2023-05-08T05:49:25.341Z,99984.09
2023-05-08T05:51:54.612Z,99979.03
2023-05-08T05:54:22.566Z,99974.47
2023-05-08T05:56:50.426Z,99968.69
2023-05-08T05:59:18.430Z,99975.31
2023-05-08T06:01:46.728Z,99971.50
2023-05-08T06:04:14.674Z,99964.34
2023-05-08T06:06:42.631Z,99978.06
2023-05-08T06:09:11.926Z,99975.22
2023-05-08T06:11:39.892Z,99967.75
2023-05-08T06:14:07.809Z,99972.41
2023-05-08T06:16:36.156Z,99971.09
2023-05-08T06:19:04.148Z,99965.94
2023-05-08T06:21:32.005Z,99967.53
2023-05-08T06:23:59.916Z,99972.84
2023-05-08T06:26:29.194Z,99973.06
2023-05-08T06:28:57.122Z,99960.88
2023-05-08T06:31:25.208Z,99968.19
2023-05-08T06:33:53.129Z,99957.88
2023-05-08T06:36:21.070Z,99964.25
2023-05-08T06:38:49.001Z,99958.56
2023-05-08T06:41:17.047Z,99958.38
2023-05-08T06:43:46.328Z,99957.78
2023-05-08T06:46:14.295Z,99954.03
2023-05-08T06:48:42.249Z,99944.84
2023-05-08T06:51:10.639Z,99947.84
2023-05-08T06:53:38.557Z,99943.91
2023-05-08T06:56:07.130Z,99951.59
2023-05-08T06:58:35.827Z,99947.06
2023-05-08T07:01:05.144Z,99928.28
2023-05-08T07:03:33.215Z,99942.59
2023-05-08T07:06:01.119Z,99919.06
2023-05-08T07:08:30.194Z,99923.38
2023-05-08T07:10:58.085Z,99941.50
2023-05-08T07:13:26.160Z,99933.06
2023-05-08T07:15:54.158Z,99935.59
2023-05-08T07:18:23.644Z,99930.44
2023-05-08T07:20:51.523Z,99932.28
2023-05-08T07:23:19.573Z,99919.38
2023-05-08T07:25:47.458Z,99925.66
2023-05-08T07:28:15.507Z,99909.13
2023-05-08T07:30:43.357Z,99922.50
2023-05-08T07:33:11.560Z,99923.19
2023-05-08T07:35:41.510Z,99918.56
2023-05-08T07:38:09.609Z,99921.69
2023-05-08T07:40:37.752Z,99924.81
2023-05-08T07:43:05.637Z,99927.13
2023-05-08T07:45:34.657Z,99917.34
2023-05-08T07:48:02.627Z,99921.00
2023-05-08T07:50:31.482Z,99919.66
2023-05-08T07:53:00.879Z,99831.00
2023-05-08T07:55:28.903Z,99921.50
2023-05-08T07:57:56.885Z,99870.47
2023-05-08T08:00:24.820Z,99914.06
2023-05-08T08:02:52.884Z,99899.84
2023-05-08T08:05:21.106Z,99895.84
2023-05-08T08:07:49.108Z,99891.53
2023-05-08T08:10:18.455Z,99886.91
2023-05-08T08:12:46.516Z,99887.56
2023-05-08T08:15:14.679Z,99901.97
2023-05-08T08:17:42.738Z,99888.72
2023-05-08T08:20:11.114Z,99888.25
2023-05-08T08:22:39.173Z,99893.72
2023-05-08T08:25:07.957Z,99869.38
2023-05-08T08:27:37.205Z,99881.06
2023-05-08T08:30:16.904Z,99882.06
2023-05-08T08:32:46.666Z,99879.47
2023-05-08T08:35:14.942Z,99874.25
2023-05-08T08:37:43.667Z,99881.63
2023-05-08T08:40:12.067Z,99876.88
2023-05-08T08:42:41.904Z,99874.50
2023-05-08T08:45:10.349Z,99873.34
2023-05-08T08:47:39.925Z,99873.91
2023-05-08T08:50:12.018Z,99850.25
2023-05-08T08:52:48.146Z,99861.72
2023-05-08T08:55:17.829Z,99863.69
2023-05-08T08:57:54.298Z,99853.69
2023-05-08T09:00:24.546Z,99857.56
2023-05-08T09:02:53.431Z,99856.31
2023-05-08T09:05:23.556Z,99855.00
2023-05-08T09:07:55.439Z,99845.63
2023-05-08T09:10:25.155Z,99846.28
2023-05-08T09:12:54.631Z,99851.25
2023-05-08T09:15:22.658Z,99843.63
2023-05-08T09:17:50.737Z,99842.84
2023-05-08T09:20:18.841Z,99833.22
2023-05-08T09:22:47.603Z,99831.19
2023-05-08T09:25:15.737Z,99819.47
2023-05-08T09:27:43.883Z,99813.59
2023-05-08T09:30:14.549Z,99814.09
2023-05-08T09:32:44.371Z,99797.94
2023-05-08T09:35:13.616Z,99801.31
2023-05-08T09:37:43.398Z,99797.50
2023-05-08T09:40:16.697Z,99795.53
2023-05-08T09:42:44.901Z,99779.09
2023-05-08T09:45:28.261Z,99785.47
2023-05-08T09:47:56.389Z,99783.38
2023-05-08T09:50:25.307Z,99777.94
2023-05-08T09:52:53.462Z,99778.00
2023-05-08T09:55:21.553Z,99771.31
2023-05-08T09:57:57.869Z,99764.31
2023-05-08T10:00:28.482Z,99754.28
2023-05-08T10:02:58.398Z,99768.38
2023-05-08T10:05:29.968Z,99763.44
2023-05-08T10:07:58.980Z,99760.22
2023-05-08T10:10:27.888Z,99753.19
2023-05-08T10:12:57.684Z,99731.88
2023-05-08T10:15:30.259Z,99743.38
2023-05-08T10:18:04.568Z,99746.44
2023-05-08T10:20:33.729Z,99743.06
2023-05-08T10:23:02.579Z,99745.84
2023-05-08T10:25:33.806Z,99733.72
2023-05-08T10:28:11.134Z,99734.72
2023-05-08T10:30:45.677Z,99723.59
2023-05-08T10:33:18.040Z,99726.59
2023-05-08T10:35:46.709Z,99729.47
2023-05-08T10:38:17.899Z,99726.75
2023-05-08T10:40:46.322Z,99715.22
2023-05-08T10:43:14.486Z,99716.78
2023-05-08T10:45:44.630Z,99721.41
2023-05-08T10:48:20.492Z,99709.88
2023-05-08T10:50:58.576Z,99717.28
2023-05-08T10:53:36.103Z,99699.78
2023-05-08T10:56:04.344Z,99717.97
2023-05-08T10:58:33.627Z,99704.38
2023-05-08T11:01:18.502Z,99711.84
2023-05-08T11:03:55.117Z,99722.72
2023-05-08T11:06:45.539Z,99715.22
2023-05-08T11:09:22.041Z,99706.75
2023-05-08T11:12:00.495Z,99710.94
2023-05-08T11:14:29.957Z,99703.97
2023-05-08T11:17:09.974Z,99698.81
2023-05-08T11:19:39.242Z,99684.13
2023-05-08T11:22:24.871Z,99690.28
2023-05-08T11:24:58.489Z,99700.63
2023-05-08T11:27:40.932Z,99696.13
2023-05-08T11:30:26.752Z,99694.72
2023-05-08T11:33:13.910Z,99693.69
2023-05-08T11:35:43.107Z,99690.34
2023-05-08T11:38:18.553Z,99684.38
2023-05-08T11:40:48.190Z,99671.84
2023-05-08T11:43:52.713Z,99673.28
2023-05-08T11:46:22.524Z,99683.38
2023-05-08T11:49:01.356Z,99674.72
2023-05-08T11:51:32.622Z,99670.44
2023-05-08T11:54:01.013Z,99670.59
2023-05-08T11:56:29.107Z,99671.44
2023-05-08T11:59:04.673Z,99666.50
2023-05-08T12:01:33.226Z,99662.63
2023-05-08T12:04:03.772Z,99660.19
2023-05-08T12:06:32.957Z,99651.34
2023-05-08T12:09:01.252Z,99653.97
2023-05-08T12:11:29.362Z,99601.63
2023-05-08T12:13:57.344Z,99638.81
2023-05-08T12:16:26.364Z,99647.84
2023-05-08T12:18:57.510Z,99644.16
2023-05-08T12:21:27.630Z,99622.16
2023-05-08T12:23:56.150Z,99631.03
2023-05-08T12:26:24.053Z,99628.97
2023-05-08T12:28:56.181Z,99628.94
2023-05-08T12:31:24.585Z,99622.38
2023-05-08T12:33:53.623Z,99627.50
2023-05-08T12:36:21.562Z,99623.00
2023-05-08T12:38:52.174Z,99629.94
2023-05-08T12:41:25.019Z,99627.72
2023-05-08T12:43:52.930Z,99621.38
2023-05-08T12:46:22.462Z,99621.97
2023-05-08T12:48:50.380Z,99621.97
2023-05-08T12:51:18.348Z,99620.31
2023-05-08T12:53:47.721Z,99603.50
2023-05-08T12:56:23.502Z,99621.97
2023-05-08T12:58:51.395Z,99621.53
2023-05-08T13:01:19.375Z,99622.97
2023-05-08T13:04:01.769Z,99619.31
2023-05-08T13:06:31.845Z,99621.56
2023-05-08T13:08:59.793Z,99611.31
2023-05-08T13:11:33.354Z,99622.28
2023-05-08T13:14:01.754Z,99625.84
2023-05-08T13:16:29.859Z,99617.06
2023-05-08T13:18:57.761Z,99605.59
2023-05-08T13:21:27.519Z,99604.91
2023-05-08T13:23:56.710Z,99571.91
2023-05-08T13:26:25.735Z,99601.84
2023-05-08T13:28:56.625Z,99593.66
2023-05-08T13:31:24.971Z,99587.47
2023-05-08T13:33:52.923Z,99587.94
2023-05-08T13:36:21.561Z,99579.28
2023-05-08T13:38:51.308Z,99585.66
2023-05-08T13:41:19.254Z,99575.00
2023-05-08T13:43:48.342Z,99583.75
2023-05-08T13:46:17.759Z,99583.16
2023-05-08T13:48:45.724Z,99571.25
2023-05-08T13:51:13.647Z,99568.09
2023-05-08T13:53:41.618Z,99571.38
2023-05-08T13:56:09.444Z,99565.38
2023-05-08T13:58:37.440Z,99554.06
2023-05-08T14:01:21.782Z,99564.75
2023-05-08T14:03:51.830Z,99554.78
2023-05-08T14:06:20.575Z,99554.56
2023-05-08T14:08:50.608Z,99550.25
2023-05-08T14:11:19.493Z,99546.84
2023-05-08T14:13:47.433Z,99545.22
2023-05-08T14:16:16.248Z,99530.84
2023-05-08T14:18:44.295Z,99551.81
2023-05-08T14:21:13.485Z,99555.06
2023-05-08T14:23:41.407Z,99559.28
2023-05-08T14:26:09.266Z,99565.66
2023-05-08T14:28:37.160Z,99565.69
2023-05-08T14:31:05.097Z,99570.63
2023-05-08T14:33:33.010Z,99568.63
2023-05-08T14:36:00.939Z,99563.28
2023-05-08T14:38:30.220Z,99571.91
2023-05-08T14:40:58.234Z,99574.34
2023-05-08T14:43:26.183Z,99565.34
2023-05-08T14:45:54.157Z,99570.66
2023-05-08T14:48:22.183Z,99571.50
2023-05-08T14:50:50.113Z,99571.50
2023-05-08T14:53:18.190Z,99570.25
2023-05-08T14:55:47.862Z,99566.78
2023-05-08T14:58:15.953Z,99568.22
2023-05-08T15:00:43.839Z,99568.03
2023-05-08T15:03:12.059Z,99575.59
2023-05-08T15:05:40.254Z,99578.88
2023-05-08T15:08:08.601Z,99573.97
2023-05-08T15:10:36.697Z,99575.56
2023-05-08T15:13:06.001Z,99577.44
2023-05-08T15:15:34.054Z,99576.00
2023-05-08T15:18:02.015Z,99571.69
2023-05-08T15:20:30.175Z,99568.16
2023-05-08T15:22:58.009Z,99568.13
2023-05-08T15:25:26.376Z,99581.09
2023-05-08T15:27:54.264Z,99577.34
2023-05-08T15:30:23.788Z,99572.59
2023-05-08T15:32:52.858Z,99570.97
2023-05-08T15:35:20.897Z,99577.03
2023-05-08T15:37:48.828Z,99581.47
2023-05-08T15:40:16.979Z,99586.31
2023-05-08T15:42:44.885Z,99591.06
2023-05-08T15:45:12.918Z,99588.19
2023-05-08T15:47:42.319Z,99590.09
2023-05-08T15:50:10.899Z,99600.28
2023-05-08T15:52:38.826Z,99588.38
2023-05-08T15:55:07.440Z,99598.84
2023-05-08T15:57:35.301Z,99606.00
2023-05-08T16:00:03.247Z,99617.25
2023-05-08T16:02:31.270Z,99630.63
2023-05-08T16:05:00.577Z,99636.31
2023-05-08T16:07:28.499Z,99640.41
2023-05-08T16:09:56.420Z,99622.06
2023-05-08T16:12:24.297Z,99652.03
2023-05-08T16:14:52.232Z,99656.31
2023-05-08T16:17:20.150Z,99662.28
2023-05-08T16:19:48.061Z,99672.31
2023-05-08T16:22:17.480Z,99672.69
2023-05-08T16:24:45.449Z,99682.31
2023-05-08T16:27:13.439Z,99704.78
2023-05-08T16:29:41.330Z,99713.81
2023-05-08T16:32:09.304Z,99725.47
2023-05-08T16:34:37.777Z,99728.66
2023-05-08T16:37:05.714Z,99739.22
2023-05-08T16:39:35.915Z,99741.53
2023-05-08T16:42:03.897Z,99747.31
2023-05-08T16:44:31.792Z,99763.00
2023-05-08T16:46:59.785Z,99757.97
2023-05-08T16:49:27.804Z,99761.88
2023-05-08T16:51:55.805Z,99773.28
2023-05-08T16:54:23.913Z,99783.25
2023-05-08T16:56:53.318Z,99788.66
2023-05-08T16:59:21.253Z,99793.16
2023-05-08T17:01:49.252Z,99789.91
2023-05-08T17:04:17.205Z,99800.72
2023-05-08T17:06:45.857Z,99796.03
2023-05-08T17:09:13.812Z,99789.91
2023-05-08T17:11:41.795Z,99803.00
2023-05-08T17:14:11.122Z,99811.56
2023-05-08T17:16:39.326Z,99819.19
2023-05-08T17:19:07.266Z,99824.78
2023-05-08T17:21:35.221Z,99825.50
2023-05-08T17:24:03.268Z,99832.56
2023-05-08T17:26:33.513Z,99836.69
2023-05-08T17:29:01.531Z,99838.09
2023-05-08T17:31:30.921Z,99845.03
2023-05-08T17:33:58.985Z,99849.44
2023-05-08T17:36:26.967Z,99858.91
2023-05-08T17:38:54.984Z,99864.09
2023-05-08T17:41:23.132Z,99864.03
2023-05-08T17:43:51.078Z,99864.41
2023-05-08T17:46:19.109Z,99864.97
2023-05-08T17:48:48.608Z,99862.13
2023-05-08T17:51:16.617Z,99875.06
2023-05-08T17:53:44.668Z,99879.03
2023-05-08T17:56:12.702Z,99887.63
2023-05-08T17:58:41.029Z,99896.56
2023-05-08T18:01:08.958Z,99891.97
2023-05-08T18:03:37.005Z,99891.72
2023-05-08T18:06:06.700Z,99879.19
2023-05-08T18:08:35.226Z,99871.31
2023-05-08T18:11:03.156Z,99881.19
2023-05-08T18:13:31.117Z,99889.72
2023-05-08T18:15:59.055Z,99895.63
2023-05-08T18:18:27.008Z,99899.00
2023-05-08T18:20:54.868Z,99908.66
2023-05-08T18:23:24.206Z,99909.31
2023-05-08T18:25:52.134Z,99918.91
2023-05-08T18:28:20.083Z,99925.69
2023-05-08T18:30:48.530Z,99924.47
2023-05-08T18:33:16.447Z,99924.13
2023-05-08T18:35:44.365Z,99925.34
2023-05-08T18:38:12.655Z,99936.78
2023-05-08T18:40:41.896Z,99942.78
2023-05-08T18:43:09.790Z,99925.75
2023-05-08T18:45:39.727Z,99937.72
2023-05-08T18:48:07.778Z,99937.78
2023-05-08T18:50:35.821Z,99946.84
2023-05-08T18:53:03.874Z,99943.00
2023-05-08T18:55:31.802Z,99942.09
2023-05-08T18:58:01.124Z,99944.91
2023-05-08T19:00:29.058Z,99948.59
2023-05-08T19:02:57.084Z,99943.16
2023-05-08T19:05:25.220Z,99945.72
2023-05-08T19:07:53.092Z,99950.31
2023-05-08T19:10:21.149Z,99949.81
2023-05-08T19:12:50.734Z,99958.72
2023-05-08T19:15:20.381Z,99953.88
2023-05-08T19:17:48.328Z,99958.91
2023-05-08T19:20:16.499Z,99968.13
2023-05-08T19:22:44.677Z,99959.69
2023-05-08T19:25:13.006Z,99963.44
2023-05-08T19:27:41.025Z,99959.16
2023-05-08T19:30:10.054Z,99969.09
2023-05-08T19:32:39.531Z,99952.13
2023-05-08T19:35:09.165Z,99967.66
2023-05-08T19:37:40.376Z,99973.00
2023-05-08T19:40:09.539Z,99968.53
2023-05-08T19:42:37.569Z,99978.56
2023-05-08T19:45:06.216Z,99978.19
2023-05-08T19:47:34.160Z,99977.56
2023-05-08T19:50:03.457Z,99979.38
2023-05-08T19:52:31.442Z,99976.63
2023-05-08T19:54:59.358Z,99968.06
2023-05-08T19:57:27.279Z,99980.16
2023-05-08T19:59:56.003Z,99994.84
2023-05-08T20:02:24.027Z,99998.19
2023-05-08T20:05:18.867Z,100006.88
2023-05-08T20:07:41.425Z,100005.50
2023-05-08T20:10:10.215Z,100004.16
2023-05-08T20:12:38.157Z,100007.19
2023-05-08T20:15:06.990Z,100009.00
2023-05-08T20:17:34.948Z,100004.16
2023-05-08T20:20:02.935Z,100006.09
2023-05-08T20:22:30.833Z,99997.09
2023-05-08T20:25:01.534Z,99995.97
2023-05-08T20:27:31.535Z,99976.81
2023-05-08T20:29:59.587Z,100007.13
2023-05-08T20:32:27.560Z,100002.16
2023-05-08T20:34:55.503Z,99996.56
2023-05-08T20:37:23.522Z,100001.63
2023-05-08T20:39:51.417Z,100002.88
2023-05-08T20:42:20.699Z,99979.06
2023-05-08T20:44:48.623Z,100010.88
2023-05-08T20:47:16.531Z,100015.81
2023-05-08T20:49:44.436Z,100018.78
2023-05-08T20:52:12.338Z,100016.66
2023-05-08T20:54:40.245Z,100022.19
2023-05-08T20:57:08.285Z,100024.31
2023-05-08T20:59:37.535Z,100020.72
2023-05-08T21:02:05.481Z,100017.03
2023-05-08T21:04:33.356Z,100011.06
2023-05-08T21:07:02.432Z,100008.53
2023-05-08T21:09:30.590Z,100010.69
2023-05-08T21:11:58.491Z,100014.84
2023-05-08T21:14:26.407Z,100024.78
2023-05-08T21:16:55.935Z,100025.94
2023-05-08T21:19:23.897Z,100021.84
2023-05-08T21:21:51.799Z,100023.25
2023-05-08T21:24:19.670Z,100045.59
2023-05-08T21:26:47.575Z,100044.69
2023-05-08T21:29:15.495Z,100044.81
2023-05-08T21:31:43.501Z,100054.31
2023-05-08T21:34:13.487Z,100053.72
2023-05-08T21:36:41.445Z,100062.38
2023-05-08T21:39:09.465Z,100066.03
2023-05-08T21:41:37.358Z,100068.66
2023-05-08T21:44:05.436Z,100068.91
2023-05-08T21:46:33.640Z,100081.88
2023-05-08T21:49:01.604Z,100080.84
2023-05-08T21:51:31.408Z,100085.41
2023-05-08T21:53:59.414Z,100076.34
2023-05-08T21:56:27.307Z,100086.69
2023-05-08T21:58:55.628Z,100082.28
2023-05-08T22:01:23.546Z,100054.56
2023-05-08T22:03:51.625Z,100084.94
2023-05-08T22:06:19.579Z,100090.16
2023-05-08T22:08:48.956Z,100089.69
2023-05-08T22:11:16.845Z,100091.47
2023-05-08T22:13:44.736Z,100089.56
2023-05-08T22:16:12.690Z,100089.78
2023-05-08T22:18:40.767Z,100089.91
2023-05-08T22:21:08.723Z,100099.66
2023-05-08T22:23:36.680Z,100098.38
2023-05-08T22:26:06.028Z,100108.84
2023-05-08T22:28:33.860Z,100115.84
2023-05-08T22:31:01.772Z,100112.03
2023-05-08T22:33:32.684Z,100119.91
2023-05-08T22:36:00.696Z,100121.31
2023-05-08T22:38:28.546Z,100119.91
2023-05-08T22:40:57.519Z,100120.16
2023-05-08T22:43:27.298Z,100122.53
2023-05-08T22:45:55.455Z,100123.38
2023-05-08T22:48:23.491Z,100131.22
2023-05-08T22:50:51.796Z,100128.72
2023-05-08T22:53:19.757Z,100131.09
2023-05-08T22:55:47.738Z,100128.22
2023-05-08T22:58:15.741Z,100131.22
2023-05-08T23:00:45.029Z,100136.72
2023-05-08T23:03:14.011Z,100143.94
2023-05-08T23:05:41.936Z,100136.41
2023-05-08T23:08:09.784Z,100139.06
2023-05-08T23:10:37.754Z,100130.22
2023-05-08T23:13:05.723Z,100131.88
2023-05-08T23:15:33.699Z,100139.88
2023-05-08T23:18:03.072Z,100131.53
2023-05-08T23:20:31.148Z,100140.44
2023-05-08T23:22:59.182Z,100143.19
2023-05-08T23:25:27.396Z,100134.75
2023-05-08T23:27:55.293Z,100130.34
2023-05-08T23:30:23.184Z,100131.63
2023-05-08T23:32:51.142Z,100135.19
2023-05-08T23:35:20.550Z,100134.59
2023-05-08T23:37:48.568Z,100138.47
2023-05-08T23:40:17.432Z,100129.16
2023-05-08T23:42:45.333Z,100126.16
2023-05-08T23:45:13.388Z,100126.16
2023-05-08T23:47:41.529Z,100124.66
2023-05-08T23:50:09.873Z,100124.75
2023-05-08T23:52:39.143Z,100123.81
2023-05-08T23:55:08.042Z,100121.88
2023-05-08T23:57:36.164Z,100116.59
